createdAt,value
2022-10-17T00:00:49.026Z,54.67
2022-10-17T00:03:18.787Z,47.78
2022-10-17T00:05:48.352Z,46.75
2022-10-17T00:08:18.161Z,46.38
2022-10-17T00:10:46.147Z,53.13
2022-10-17T00:13:13.461Z,45.78
2022-10-17T00:15:44.955Z,51.47
2022-10-17T00:18:13.817Z,46.08
2022-10-17T00:20:41.303Z,48.90
2022-10-17T00:23:08.626Z,44.58
2022-10-17T00:25:37.017Z,49.30
2022-10-17T00:28:04.363Z,47.15
2022-10-17T00:30:32.825Z,50.20
2022-10-17T00:33:00.161Z,45.47
2022-10-17T00:35:27.548Z,49.10
2022-10-17T00:37:54.856Z,42.28
2022-10-17T00:40:23.102Z,53.80
2022-10-17T00:42:53.033Z,45.03
2022-10-17T00:45:22.599Z,49.67
2022-10-17T00:48:04.752Z,49.85
2022-10-17T00:50:32.349Z,48.15
2022-10-17T00:53:02.797Z,47.15
2022-10-17T00:55:35.648Z,51.05
2022-10-17T00:58:05.016Z,49.47
2022-10-17T01:00:32.553Z,52.83
2022-10-17T01:02:59.832Z,42.78
2022-10-17T01:05:29.740Z,42.00
2022-10-17T01:07:57.359Z,40.47
2022-10-17T01:10:29.943Z,45.45
2022-10-17T01:13:09.385Z,50.05
2022-10-17T01:15:41.401Z,46.15
2022-10-17T01:18:37.057Z,50.78
2022-10-17T01:21:39.536Z,55.78
2022-10-17T01:24:27.126Z,47.65
2022-10-17T01:27:13.646Z,45.53
2022-10-17T01:30:05.740Z,48.63
2022-10-17T01:32:37.716Z,43.17
2022-10-17T01:35:20.122Z,43.28
2022-10-17T01:38:04.022Z,45.42
2022-10-17T01:40:58.806Z,48.47
2022-10-17T01:43:49.529Z,44.70
2022-10-17T01:46:37.393Z,41.80
2022-10-17T01:49:09.812Z,45.55
2022-10-17T01:51:42.044Z,43.60
2022-10-17T01:54:41.485Z,42.88
2022-10-17T01:57:15.416Z,42.95
2022-10-17T01:59:46.556Z,50.97
2022-10-17T02:02:15.601Z,40.15
2022-10-17T02:04:48.564Z,45.78
2022-10-17T02:07:16.330Z,45.67
2022-10-17T02:09:44.079Z,46.20
2022-10-17T02:12:54.259Z,46.90
2022-10-17T02:15:33.572Z,42.00
2022-10-17T02:18:18.869Z,43.92
2022-10-17T02:20:59.304Z,49.60
2022-10-17T02:23:57.035Z,46.80
2022-10-17T02:26:35.479Z,50.38
2022-10-17T02:29:20.189Z,44.70
2022-10-17T02:31:56.124Z,45.47
2022-10-17T02:34:31.658Z,50.25
2022-10-17T02:37:05.123Z,43.60
2022-10-17T02:39:34.968Z,48.75
2022-10-17T02:42:05.316Z,43.92
2022-10-17T02:44:33.697Z,43.97
2022-10-17T02:47:16.625Z,47.78
2022-10-17T02:49:49.267Z,44.50
2022-10-17T02:52:27.047Z,48.67
2022-10-17T02:55:12.092Z,43.25
2022-10-17T02:57:44.755Z,45.83
2022-10-17T03:00:16.057Z,41.90
2022-10-17T03:02:48.828Z,41.40
2022-10-17T03:05:22.977Z,47.00
2022-10-17T03:07:50.931Z,43.33
2022-10-17T03:10:18.773Z,44.85
2022-10-17T03:12:46.362Z,43.95
2022-10-17T03:15:14.710Z,41.20
2022-10-17T03:17:42.974Z,49.88
2022-10-17T03:20:11.229Z,45.15
2022-10-17T03:22:38.496Z,45.40
2022-10-17T03:25:06.952Z,43.25
2022-10-17T03:27:36.290Z,39.67
2022-10-17T03:30:07.265Z,42.63
2022-10-17T03:32:35.932Z,48.55
2022-10-17T03:35:03.648Z,45.08
2022-10-17T03:37:31.372Z,41.60
2022-10-17T03:39:59.786Z,45.95
2022-10-17T03:42:27.081Z,43.97
2022-10-17T03:44:54.431Z,48.03
2022-10-17T03:47:21.787Z,45.70
2022-10-17T03:49:49.379Z,46.72
2022-10-17T03:52:16.714Z,47.22
2022-10-17T03:54:44.118Z,41.47
2022-10-17T03:57:11.518Z,45.63
2022-10-17T03:59:38.950Z,44.20
2022-10-17T04:02:12.681Z,44.50
2022-10-17T04:04:40.033Z,38.90
2022-10-17T04:07:07.599Z,43.10
2022-10-17T04:09:37.363Z,44.13
2022-10-17T04:12:23.228Z,43.03
2022-10-17T04:14:50.735Z,51.45
2022-10-17T04:17:20.873Z,42.95
2022-10-17T04:19:49.736Z,50.55
2022-10-17T04:22:18.416Z,41.95
2022-10-17T04:24:45.846Z,42.40
2022-10-17T04:27:39.521Z,46.20
2022-10-17T04:30:07.748Z,42.83
2022-10-17T04:32:39.289Z,44.00
2022-10-17T04:35:21.183Z,44.53
2022-10-17T04:37:54.471Z,46.03
2022-10-17T04:40:21.967Z,43.42
2022-10-17T04:42:54.820Z,45.00
2022-10-17T04:45:30.046Z,37.45
2022-10-17T04:48:01.020Z,42.05
2022-10-17T04:50:28.558Z,42.53
2022-10-17T04:53:27.148Z,36.50
2022-10-17T04:55:55.224Z,37.88
2022-10-17T04:58:23.129Z,41.55
2022-10-17T05:00:51.801Z,43.35
2022-10-17T05:03:29.060Z,44.50
2022-10-17T05:05:56.627Z,40.30
2022-10-17T05:08:24.177Z,48.17
2022-10-17T05:10:51.642Z,44.13
2022-10-17T05:13:20.505Z,44.95
2022-10-17T05:15:48.001Z,50.30
2022-10-17T05:18:16.532Z,45.63
2022-10-17T05:20:44.855Z,49.95
2022-10-17T05:23:15.281Z,52.55
2022-10-17T05:25:43.911Z,47.67
2022-10-17T05:28:12.087Z,46.75
2022-10-17T05:30:41.350Z,45.63
2022-10-17T05:33:09.693Z,45.08
2022-10-17T05:35:39.959Z,47.97
2022-10-17T05:38:07.676Z,41.88
2022-10-17T05:40:36.241Z,43.55
2022-10-17T05:43:03.645Z,46.10
2022-10-17T05:45:31.436Z,35.50
2022-10-17T05:47:59.602Z,32.85
2022-10-17T05:50:27.094Z,41.15
2022-10-17T05:53:08.690Z,42.35
2022-10-17T05:55:41.858Z,42.70
2022-10-17T05:58:17.779Z,47.75
2022-10-17T06:01:02.736Z,43.35
2022-10-17T06:03:30.856Z,44.55
2022-10-17T06:06:13.776Z,50.55
2022-10-17T06:08:44.868Z,47.80
2022-10-17T06:11:15.881Z,44.33
2022-10-17T06:13:43.293Z,45.72
2022-10-17T06:16:15.759Z,48.20
2022-10-17T06:18:43.115Z,52.45
2022-10-17T06:21:12.510Z,50.63
2022-10-17T06:23:44.861Z,45.70
2022-10-17T06:26:20.192Z,39.90
2022-10-17T06:28:48.945Z,46.75
2022-10-17T06:31:17.334Z,49.35
2022-10-17T06:33:44.630Z,50.53
2022-10-17T06:36:13.925Z,43.83
2022-10-17T06:38:42.014Z,40.88
2022-10-17T06:41:19.352Z,52.83
2022-10-17T06:43:47.697Z,52.50
2022-10-17T06:46:30.121Z,53.13
2022-10-17T06:49:09.898Z,54.33
2022-10-17T06:51:43.842Z,57.15
2022-10-17T06:54:14.091Z,49.28
2022-10-17T06:56:50.114Z,46.38
2022-10-17T06:59:49.811Z,54.40
2022-10-17T07:02:23.646Z,48.03
2022-10-17T07:04:51.973Z,47.72
2022-10-17T07:07:19.787Z,53.80
2022-10-17T07:09:51.702Z,48.10
2022-10-17T07:14:50.197Z,46.97
2022-10-17T07:17:18.885Z,52.38
2022-10-17T07:19:47.053Z,52.70
2022-10-17T07:22:14.484Z,55.95
2022-10-17T07:24:45.422Z,52.47
2022-10-17T07:27:25.237Z,50.67
2022-10-17T07:29:53.203Z,50.03
2022-10-17T07:32:55.513Z,49.40
2022-10-17T07:35:22.983Z,49.80
2022-10-17T07:37:51.328Z,50.25
2022-10-17T07:40:20.868Z,53.30
2022-10-17T07:42:48.376Z,55.95
2022-10-17T07:45:16.217Z,49.83
2022-10-17T07:47:44.596Z,52.47
2022-10-17T07:50:15.659Z,57.38
2022-10-17T07:52:43.342Z,51.22
2022-10-17T07:55:12.684Z,57.33
2022-10-17T07:57:41.445Z,50.25
2022-10-17T08:00:09.648Z,50.88
2022-10-17T08:02:40.121Z,54.15
2022-10-17T08:05:07.869Z,55.67
2022-10-17T08:07:35.206Z,51.13
2022-10-17T08:10:02.665Z,45.17
2022-10-17T08:12:32.845Z,50.50
2022-10-17T08:15:01.317Z,48.55
2022-10-17T08:17:28.674Z,50.40
2022-10-17T08:19:56.027Z,49.47
2022-10-17T08:22:23.570Z,50.30
2022-10-17T08:24:50.907Z,50.83
2022-10-17T08:27:23.856Z,51.47
2022-10-17T08:29:54.775Z,49.35
2022-10-17T08:32:25.815Z,48.67
2022-10-17T08:34:54.074Z,53.08
2022-10-17T08:37:22.587Z,59.22
2022-10-17T08:39:49.878Z,52.65
2022-10-17T08:42:17.401Z,57.42
2022-10-17T08:44:53.456Z,56.47
2022-10-17T08:47:33.886Z,50.80
2022-10-17T08:50:04.141Z,50.58
2022-10-17T08:52:45.964Z,51.00
2022-10-17T08:57:52.205Z,52.70
2022-10-17T09:00:21.579Z,54.50
2022-10-17T09:03:17.295Z,56.05
2022-10-17T09:06:11.053Z,53.13
2022-10-17T09:11:47.651Z,56.15
2022-10-17T09:14:26.809Z,55.13
2022-10-17T09:17:12.697Z,58.53
2022-10-17T09:19:52.078Z,55.03
2022-10-17T09:22:24.856Z,58.90
2022-10-17T09:24:59.548Z,57.15
2022-10-17T09:27:44.808Z,50.35
2022-10-17T09:30:51.808Z,51.08
2022-10-17T09:33:35.093Z,51.78
2022-10-17T09:36:34.187Z,53.35
2022-10-17T09:39:05.265Z,51.05
2022-10-17T09:41:46.875Z,52.05
2022-10-17T09:44:17.901Z,50.88
2022-10-17T09:47:13.288Z,55.47
2022-10-17T09:49:47.688Z,56.05
2022-10-17T09:52:16.844Z,58.47
2022-10-17T09:54:54.866Z,47.67
2022-10-17T09:57:22.964Z,48.88
2022-10-17T10:00:06.142Z,46.28
2022-10-17T10:02:40.985Z,46.72
2022-10-17T10:05:20.232Z,52.25
2022-10-17T10:08:15.394Z,46.38
2022-10-17T10:10:44.055Z,50.65
2022-10-17T10:13:14.150Z,45.03
2022-10-17T10:15:49.795Z,47.28
2022-10-17T10:18:35.877Z,58.78
2022-10-17T10:21:23.889Z,44.00
2022-10-17T10:24:12.322Z,45.92
2022-10-17T10:26:46.629Z,44.65
2022-10-17T10:29:37.062Z,41.63
2022-10-17T10:32:19.190Z,42.97
2022-10-17T10:35:21.772Z,39.60
2022-10-17T10:37:57.600Z,42.45
2022-10-17T10:40:45.125Z,40.83
2022-10-17T10:43:27.647Z,40.10
2022-10-17T10:45:55.154Z,41.13
2022-10-17T10:48:30.236Z,37.22
2022-10-17T10:51:19.625Z,39.67
2022-10-17T10:53:59.529Z,40.70
2022-10-17T10:56:42.667Z,35.17
2022-10-17T10:59:33.209Z,37.25
2022-10-17T11:02:12.689Z,35.20
2022-10-17T11:04:46.508Z,36.88
2022-10-17T11:07:20.310Z,33.33
2022-10-17T11:10:22.877Z,26.90
2022-10-17T11:12:58.495Z,33.65
2022-10-17T11:16:02.203Z,33.58
2022-10-17T11:18:44.693Z,35.17
2022-10-17T11:21:56.866Z,35.03
2022-10-17T11:24:28.000Z,34.30
2022-10-17T11:27:00.544Z,29.83
2022-10-17T11:29:33.110Z,28.67
2022-10-17T11:32:12.777Z,30.85
2022-10-17T11:34:47.459Z,31.40
2022-10-17T11:37:32.103Z,31.45
2022-10-17T11:40:08.461Z,38.00
2022-10-17T11:42:52.882Z,31.25
2022-10-17T11:45:24.247Z,31.27
2022-10-17T11:48:11.332Z,29.67
2022-10-17T11:53:53.934Z,29.77
2022-10-17T11:56:42.667Z,28.42
2022-10-17T11:59:48.915Z,33.45
2022-10-17T12:02:37.288Z,31.13
2022-10-17T12:05:28.973Z,34.40
2022-10-17T12:08:10.183Z,40.60
2022-10-17T12:10:44.009Z,29.33
2022-10-17T12:13:30.247Z,33.08
2022-10-17T12:16:19.602Z,33.92
2022-10-17T12:19:06.267Z,30.58
2022-10-17T12:22:01.953Z,27.00
2022-10-17T12:24:38.828Z,29.70
2022-10-17T12:27:37.531Z,28.17
2022-10-17T12:30:20.675Z,28.90
2022-10-17T12:33:23.575Z,31.25
2022-10-17T12:35:52.253Z,31.20
2022-10-17T12:38:27.066Z,36.65
2022-10-17T12:40:56.569Z,32.63
2022-10-17T12:43:29.992Z,32.92
2022-10-17T12:46:02.640Z,34.05
2022-10-17T12:48:39.352Z,31.73
2022-10-17T12:51:35.223Z,30.63
2022-10-17T12:54:13.972Z,34.90
2022-10-17T12:56:47.567Z,31.83
2022-10-17T12:59:25.199Z,31.48
2022-10-17T13:01:56.361Z,37.83
2022-10-17T13:04:24.542Z,35.08
2022-10-17T13:06:56.261Z,38.47
2022-10-17T13:09:28.645Z,35.28
2022-10-17T13:11:59.799Z,38.05
2022-10-17T13:14:28.473Z,40.03
2022-10-17T13:16:58.972Z,34.75
2022-10-17T13:19:39.975Z,37.63
2022-10-17T13:22:20.920Z,35.95
2022-10-17T13:24:49.608Z,36.95
2022-10-17T13:27:28.663Z,35.83
2022-10-17T13:29:57.813Z,37.45
2022-10-17T13:32:34.689Z,35.55
2022-10-17T13:35:22.066Z,43.25
2022-10-17T13:37:54.161Z,39.78
2022-10-17T13:43:20.956Z,40.60
2022-10-17T13:45:51.509Z,36.28
2022-10-17T13:48:30.700Z,33.83
2022-10-17T13:51:03.131Z,37.83
2022-10-17T13:53:34.081Z,34.17
2022-10-17T13:56:29.188Z,37.92
2022-10-17T13:59:22.174Z,39.33
2022-10-17T14:01:52.106Z,41.03
2022-10-17T14:04:20.556Z,33.05
2022-10-17T14:06:49.560Z,38.08
2022-10-17T14:09:28.282Z,40.53
2022-10-17T14:12:03.126Z,39.00
2022-10-17T14:14:46.046Z,33.80
2022-10-17T14:17:28.910Z,48.35
2022-10-17T14:20:26.511Z,41.90
2022-10-17T14:23:17.555Z,38.70
2022-10-17T14:25:40.797Z,39.80
2022-10-17T14:28:11.783Z,38.08
2022-10-17T14:31:02.973Z,38.25
2022-10-17T14:33:31.895Z,41.53
2022-10-17T14:36:01.756Z,43.00
2022-10-17T14:38:30.217Z,35.20
2022-10-17T14:41:41.392Z,37.45
2022-10-17T14:44:06.928Z,45.23
2022-10-17T14:46:38.883Z,43.15
2022-10-17T14:49:15.313Z,38.03
2022-10-17T14:52:18.538Z,35.80
2022-10-17T14:54:48.392Z,40.25
2022-10-17T14:57:19.450Z,36.58
2022-10-17T14:59:55.338Z,35.13
2022-10-17T15:02:28.782Z,39.78
2022-10-17T15:04:56.456Z,38.90
2022-10-17T15:07:24.251Z,44.33
2022-10-17T15:09:53.504Z,39.22
2022-10-17T15:12:23.525Z,38.65
2022-10-17T15:14:51.839Z,36.70
2022-10-17T15:17:26.728Z,39.35
2022-10-17T15:19:54.776Z,34.63
2022-10-17T15:22:22.618Z,35.50
2022-10-17T15:24:50.142Z,37.97
2022-10-17T15:27:22.792Z,36.42
2022-10-17T15:29:51.686Z,45.92
2022-10-17T15:32:19.220Z,35.85
2022-10-17T15:34:46.569Z,41.15
2022-10-17T15:37:25.322Z,34.60
2022-10-17T15:39:55.117Z,43.53
2022-10-17T15:42:27.580Z,36.92
2022-10-17T15:44:55.648Z,42.07
2022-10-17T15:47:28.082Z,83.18
2022-10-17T15:49:55.973Z,42.42
2022-10-17T15:52:24.294Z,35.22
2022-10-17T15:54:52.506Z,57.75
2022-10-17T15:57:26.041Z,84.10
2022-10-17T15:59:55.551Z,102.32
2022-10-17T16:02:23.852Z,43.92
2022-10-17T16:04:52.201Z,37.25
2022-10-17T16:07:20.326Z,39.28
2022-10-17T16:09:47.819Z,35.85
2022-10-17T16:12:27.712Z,63.08
2022-10-17T16:14:55.546Z,47.17
2022-10-17T16:17:22.867Z,39.47
2022-10-17T16:19:50.197Z,38.35
2022-10-17T16:22:28.960Z,35.75
2022-10-17T16:24:59.163Z,40.05
2022-10-17T16:27:26.561Z,36.10
2022-10-17T16:29:53.918Z,49.75
2022-10-17T16:32:21.308Z,50.85
2022-10-17T16:34:48.676Z,58.05
2022-10-17T16:37:16.028Z,64.43
2022-10-17T16:39:43.433Z,60.22
2022-10-17T16:42:10.769Z,51.42
2022-10-17T16:44:38.080Z,60.65
2022-10-17T16:47:05.351Z,50.25
2022-10-17T16:49:32.630Z,41.70
2022-10-17T16:51:59.928Z,38.97
2022-10-17T16:54:27.371Z,41.97
2022-10-17T16:56:54.728Z,44.00
2022-10-17T16:59:22.144Z,37.80
2022-10-17T17:01:49.703Z,35.33
2022-10-17T17:04:17.419Z,33.83
2022-10-17T17:09:17.152Z,38.40
2022-10-17T17:11:44.583Z,35.83
2022-10-17T17:14:12.634Z,33.83
2022-10-17T17:16:39.945Z,37.95
2022-10-17T17:19:11.311Z,37.97
2022-10-17T17:21:39.658Z,35.95
2022-10-17T17:24:07.058Z,36.53
2022-10-17T17:26:39.041Z,36.25
2022-10-17T17:29:06.365Z,38.55
2022-10-17T17:31:35.356Z,39.03
2022-10-17T17:34:03.330Z,32.58
2022-10-17T17:36:33.405Z,45.10
2022-10-17T17:39:04.013Z,32.53
2022-10-17T17:41:32.187Z,35.00
2022-10-17T17:44:00.643Z,33.72
2022-10-17T17:46:28.067Z,37.65
2022-10-17T17:48:56.071Z,36.17
2022-10-17T17:51:28.428Z,52.47
2022-10-17T17:56:27.374Z,36.85
2022-10-17T17:58:58.004Z,33.70
2022-10-17T18:01:28.370Z,39.97
2022-10-17T18:03:58.923Z,34.60
2022-10-17T18:06:27.530Z,34.00
2022-10-17T18:08:57.994Z,41.10
2022-10-17T18:11:27.173Z,40.78
2022-10-17T18:14:00.138Z,37.58
2022-10-17T18:16:30.109Z,37.55
2022-10-17T18:19:01.487Z,39.45
2022-10-17T18:21:31.784Z,32.75
2022-10-17T18:24:00.134Z,32.53
2022-10-17T18:26:28.050Z,46.20
2022-10-17T18:28:55.536Z,41.58
2022-10-17T18:31:28.163Z,38.22
2022-10-17T18:33:57.830Z,35.35
2022-10-17T18:36:26.245Z,44.60
2022-10-17T18:38:54.777Z,56.92
2022-10-17T18:41:24.308Z,53.65
2022-10-17T18:43:53.516Z,47.58
2022-10-17T18:46:29.887Z,41.85
2022-10-17T18:48:57.396Z,39.88
2022-10-17T18:51:26.242Z,39.75
2022-10-17T18:53:56.036Z,40.13
2022-10-17T18:56:23.989Z,38.25
2022-10-17T18:58:52.074Z,35.47
2022-10-17T19:01:22.820Z,39.92
2022-10-17T19:03:52.779Z,38.42
2022-10-17T19:06:22.615Z,33.28
2022-10-17T19:08:50.157Z,38.97
2022-10-17T19:11:25.393Z,43.00
2022-10-17T19:13:53.836Z,43.58
2022-10-17T19:16:27.383Z,40.05
2022-10-17T19:19:06.847Z,40.78
2022-10-17T19:21:34.813Z,40.85
2022-10-17T19:24:10.156Z,39.90
2022-10-17T19:26:42.558Z,37.47
2022-10-17T19:29:14.805Z,36.33
2022-10-17T19:31:43.002Z,39.47
2022-10-17T19:34:11.834Z,35.72
2022-10-17T19:36:39.805Z,42.38
2022-10-17T19:39:18.231Z,35.25
2022-10-17T19:41:47.792Z,37.85
2022-10-17T19:44:15.976Z,57.80
2022-10-17T19:46:46.680Z,51.88
2022-10-17T19:49:14.843Z,41.10
2022-10-17T19:51:42.564Z,40.00
2022-10-17T19:54:10.373Z,39.05
2022-10-17T19:56:38.651Z,37.42
2022-10-17T19:59:07.858Z,36.35
2022-10-17T20:01:38.961Z,41.10
2022-10-17T20:04:07.693Z,94.88
2022-10-17T20:06:35.536Z,100.35
2022-10-17T20:09:04.501Z,52.17
2022-10-17T20:11:32.399Z,40.97
2022-10-17T20:14:01.248Z,34.70
2022-10-17T20:16:31.968Z,36.28
2022-10-17T20:19:07.452Z,34.97
2022-10-17T20:21:37.232Z,38.03
2022-10-17T20:24:06.511Z,53.22
2022-10-17T20:26:39.161Z,39.75
2022-10-17T20:31:39.950Z,45.17
2022-10-17T20:34:07.415Z,34.15
2022-10-17T20:36:37.472Z,33.30
2022-10-17T20:39:06.272Z,36.70
2022-10-17T20:41:34.325Z,35.72
2022-10-17T20:44:02.002Z,36.80
2022-10-17T20:46:36.988Z,45.83
2022-10-17T20:49:06.941Z,36.05
2022-10-17T20:51:34.991Z,38.65
2022-10-17T20:54:03.016Z,38.10
2022-10-17T20:56:32.063Z,32.83
2022-10-17T20:59:01.940Z,32.83
2022-10-17T21:01:31.096Z,36.22
2022-10-17T21:04:06.151Z,36.42
2022-10-17T21:06:38.358Z,40.22
2022-10-17T21:09:06.368Z,32.90
2022-10-17T21:11:33.712Z,31.25
2022-10-17T21:14:03.555Z,35.15
2022-10-17T21:16:33.087Z,31.80
2022-10-17T21:19:00.789Z,33.78
2022-10-17T21:21:38.246Z,35.10
2022-10-17T21:24:12.565Z,36.40
2022-10-17T21:26:41.680Z,37.55
2022-10-17T21:29:11.603Z,37.95
2022-10-17T21:31:40.944Z,31.75
2022-10-17T21:34:14.293Z,34.88
2022-10-17T21:36:43.193Z,36.67
2022-10-17T21:39:11.977Z,38.03
2022-10-17T21:41:39.713Z,34.65
2022-10-17T21:44:13.425Z,38.28
2022-10-17T21:46:41.101Z,30.50
2022-10-17T21:49:12.100Z,32.22
2022-10-17T21:51:40.307Z,36.08
2022-10-17T21:54:08.429Z,34.15
2022-10-17T21:56:36.492Z,35.25
2022-10-17T21:59:04.879Z,41.33
2022-10-17T22:01:41.173Z,42.47
2022-10-17T22:04:13.048Z,35.83
2022-10-17T22:06:42.099Z,34.13
2022-10-17T22:09:18.133Z,37.97
2022-10-17T22:11:48.663Z,35.78
2022-10-17T22:14:18.714Z,35.28
2022-10-17T22:16:47.065Z,36.05
2022-10-17T22:19:16.973Z,41.50
2022-10-17T22:21:44.859Z,39.53
2022-10-17T22:24:14.391Z,37.67
2022-10-17T22:26:42.890Z,39.03
2022-10-17T22:29:11.279Z,31.65
2022-10-17T22:31:39.295Z,37.17
2022-10-17T22:34:07.220Z,34.63
2022-10-17T22:36:35.322Z,36.22
2022-10-17T22:39:02.920Z,33.10
2022-10-17T22:41:30.296Z,32.83
2022-10-17T22:43:57.684Z,32.88
2022-10-17T22:46:25.562Z,39.75
2022-10-17T22:48:52.938Z,31.95
2022-10-17T22:51:20.464Z,30.13
2022-10-17T22:53:47.872Z,40.05
2022-10-17T22:56:19.787Z,33.45
2022-10-17T22:58:47.753Z,32.08
2022-10-17T23:01:18.954Z,33.65
2022-10-17T23:03:46.719Z,30.75
2022-10-17T23:06:14.160Z,36.28
2022-10-17T23:08:41.982Z,37.67
2022-10-17T23:11:09.879Z,31.33
2022-10-17T23:13:37.626Z,34.50
2022-10-17T23:16:05.314Z,38.58
2022-10-17T23:18:32.897Z,38.55
2022-10-17T23:21:00.212Z,33.17
2022-10-17T23:23:27.632Z,30.90
2022-10-17T23:25:55.022Z,35.25
2022-10-17T23:28:22.344Z,36.38
2022-10-17T23:30:49.605Z,36.97
2022-10-17T23:33:16.978Z,33.15
2022-10-17T23:35:44.490Z,35.15
2022-10-17T23:38:11.879Z,37.42
2022-10-17T23:40:39.227Z,32.05
2022-10-17T23:43:06.567Z,31.60
2022-10-17T23:45:36.820Z,34.95
2022-10-17T23:48:05.416Z,34.70
2022-10-17T23:50:32.710Z,31.52
2022-10-17T23:53:00.016Z,32.65
2022-10-17T23:55:27.308Z,35.80
2022-10-17T23:57:54.589Z,33.50
